Time;durP1;ratioP1;P1;durP2;ratioP2;P2;SDS_P1;SDS_P2;PMS_P1;PMS_P2;Temp;Humidity;BMP_temperature;BMP_pressure;BME280_temperature;BME280_humidity;BME280_pressure;Samples;Min_cycle;Max_cycle;Signal;HPM_P1;HPM_P2
2022/04/15 00:00:29;;;;;;;2.85;0.77;;;;;;;;;;4932126;29;20038;-82
2022/04/15 00:02:54;;;;;;;0.40;0.40;;;;;;;;;;4932738;29;20377;-83
2022/04/15 00:05:36;;;;;;;0.50;0.50;;;;;;;;;;4933363;29;20469;-83
2022/04/15 00:08:08;;;;;;;1.40;1.25;;;;;;;;;;4934303;29;20019;-82
2022/04/15 00:10:34;;;;;;;0.82;0.82;;;;;;;;;;4926474;29;20338;-83
2022/04/15 00:13:00;;;;;;;1.30;1.20;;;;;;;;;;4933933;29;20024;-83
2022/04/15 00:15:27;;;;;;;1.75;0.88;;;;;;;;;;4930403;29;20039;-82
2022/04/15 00:17:53;;;;;;;1.17;1.08;;;;;;;;;;4928239;29;20027;-83
2022/04/15 00:20:19;;;;;;;1.30;1.20;;;;;;;;;;4933785;29;20035;-82
2022/04/15 00:22:44;;;;;;;0.68;0.68;;;;;;;;;;4928067;29;20709;-81
2022/04/15 00:25:10;;;;;;;0.75;0.60;;;;;;;;;;4922743;29;20083;-80
2022/04/15 00:27:36;;;;;;;0.63;0.55;;;;;;;;;;4933401;29;20047;-80
2022/04/15 00:30:03;;;;;;;0.82;0.82;;;;;;;;;;4923016;29;20061;-82
2022/04/15 00:32:32;;;;;;;2.90;2.10;;;;;;;;;;4927069;29;20386;-84
2022/04/15 00:34:57;;;;;;;1.45;1.35;;;;;;;;;;4921198;29;20032;-81
2022/04/15 00:37:23;;;;;;;1.45;1.13;;;;;;;;;;4912149;29;20122;-80
2022/04/15 00:39:49;;;;;;;0.52;0.45;;;;;;;;;;4929772;29;20091;-82
2022/04/15 00:42:16;;;;;;;0.40;0.40;;;;;;;;;;4918462;29;20119;-80
2022/04/15 00:44:42;;;;;;;1.70;1.60;;;;;;;;;;4939465;29;20155;-81
2022/04/15 00:47:10;;;;;;;0.75;0.75;;;;;;;;;;4932650;29;20110;-82
2022/04/15 00:49:38;;;;;;;0.85;0.75;;;;;;;;;;4927872;29;20027;-80
2022/04/15 00:52:07;;;;;;;1.15;0.90;;;;;;;;;;4932391;29;20454;-83
2022/04/15 00:54:35;;;;;;;0.75;0.75;;;;;;;;;;4917634;29;20107;-80
2022/04/15 00:57:01;;;;;;;0.98;0.93;;;;;;;;;;4918073;29;20028;-83
2022/04/15 00:59:28;;;;;;;0.57;0.45;;;;;;;;;;4934867;29;20055;-81
2022/04/15 01:01:53;;;;;;;2.38;1.73;;;;;;;;;;4927534;29;20036;-82
2022/04/15 01:04:21;;;;;;;1.02;0.77;;;;;;;;;;4936364;29;20331;-81
2022/04/15 01:06:48;;;;;;;1.85;1.08;;;;;;;;;;4935847;29;20421;-81
2022/04/15 01:09:14;;;;;;;0.90;0.90;;;;;;;;;;4935932;29;20146;-83
2022/04/15 01:11:43;;;;;;;1.17;0.73;;;;;;;;;;4938277;29;20055;-79
2022/04/15 01:14:10;;;;;;;1.63;1.30;;;;;;;;;;4935220;29;20110;-80
2022/04/15 01:16:35;;;;;;;0.73;0.73;;;;;;;;;;4933120;29;20032;-80
2022/04/15 01:19:01;;;;;;;0.77;0.68;;;;;;;;;;4936270;29;20034;-82
2022/04/15 01:21:40;;;;;;;1.17;1.10;;;;;;;;;;4912346;29;20031;-78
2022/04/15 01:24:11;;;;;;;0.80;0.73;;;;;;;;;;4909905;29;20460;-79
2022/04/15 01:26:38;;;;;;;0.50;0.50;;;;;;;;;;4933922;29;20110;-78
2022/04/15 01:29:04;;;;;;;1.05;0.93;;;;;;;;;;4927086;29;20062;-78
2022/04/15 01:31:31;;;;;;;0.38;0.38;;;;;;;;;;4928734;29;20059;-78
2022/04/15 01:33:58;;;;;;;0.57;0.57;;;;;;;;;;4928477;29;20020;-78
2022/04/15 01:36:26;;;;;;;0.65;0.65;;;;;;;;;;4933966;29;20032;-77
2022/04/15 01:38:56;;;;;;;1.08;0.80;;;;;;;;;;4916303;29;20024;-78
2022/04/15 01:41:22;;;;;;;1.25;1.15;;;;;;;;;;4935641;29;20517;-79
2022/04/15 01:43:50;;;;;;;2.15;0.93;;;;;;;;;;4937751;29;20358;-77
2022/04/15 01:46:15;;;;;;;1.08;0.98;;;;;;;;;;4937527;29;20045;-78
2022/04/15 01:48:41;;;;;;;0.30;0.30;;;;;;;;;;4929504;29;20489;-80
2022/04/15 01:51:09;;;;;;;0.95;0.75;;;;;;;;;;4914756;29;20020;-78
2022/04/15 01:53:34;;;;;;;2.40;1.95;;;;;;;;;;4929729;29;20406;-78
2022/04/15 01:56:02;;;;;;;1.58;1.15;;;;;;;;;;4927534;29;20066;-78
2022/04/15 01:58:27;;;;;;;2.95;1.98;;;;;;;;;;4922615;29;20486;-79
2022/04/15 02:00:52;;;;;;;1.77;1.13;;;;;;;;;;4935253;29;20024;-78
2022/04/15 02:03:18;;;;;;;0.98;0.65;;;;;;;;;;4937842;29;20035;-79
2022/04/15 02:05:45;;;;;;;0.73;0.73;;;;;;;;;;4937352;29;20110;-78
2022/04/15 02:08:11;;;;;;;1.65;1.35;;;;;;;;;;4937095;29;20024;-79
2022/04/15 02:10:36;;;;;;;1.38;0.60;;;;;;;;;;4934201;29;20043;-78
2022/04/15 02:13:04;;;;;;;2.33;1.42;;;;;;;;;;4935824;29;20024;-78
2022/04/15 02:15:29;;;;;;;0.13;0.13;;;;;;;;;;4938246;29;20046;-78
2022/04/15 02:17:54;;;;;;;1.40;1.20;;;;;;;;;;4938980;29;20027;-78
2022/04/15 02:20:22;;;;;;;0.93;0.93;;;;;;;;;;4938705;29;20035;-78
2022/04/15 02:22:54;;;;;;;0.35;0.35;;;;;;;;;;4938010;29;20058;-78
2022/04/15 02:25:19;;;;;;;3.78;1.45;;;;;;;;;;4937875;29;20043;-78
2022/04/15 02:27:45;;;;;;;1.45;1.23;;;;;;;;;;4938558;29;20027;-79
2022/04/15 02:30:10;;;;;;;0.93;0.93;;;;;;;;;;4936990;29;20039;-78
2022/04/15 02:32:36;;;;;;;1.40;1.15;;;;;;;;;;4937612;29;20063;-77
2022/04/15 02:35:01;;;;;;;3.28;2.42;;;;;;;;;;4934919;29;20038;-78
2022/04/15 02:37:29;;;;;;;1.25;0.90;;;;;;;;;;4921595;29;20035;-79
2022/04/15 02:39:55;;;;;;;1.25;1.13;;;;;;;;;;4924078;29;20038;-78
2022/04/15 02:42:22;;;;;;;0.22;0.22;;;;;;;;;;4937305;29;20059;-79
2022/04/15 02:44:52;;;;;;;0.40;0.40;;;;;;;;;;4935684;29;20035;-78
2022/04/15 02:47:20;;;;;;;0.52;0.52;;;;;;;;;;4937113;29;20446;-79
2022/04/15 02:49:46;;;;;;;15.43;1.60;;;;;;;;;;4937012;29;20479;-79
2022/04/15 02:52:11;;;;;;;1.13;1.08;;;;;;;;;;4936456;29;20042;-78
2022/04/15 02:54:36;;;;;;;1.25;1.08;;;;;;;;;;4936351;29;20032;-78
2022/04/15 02:57:03;;;;;;;1.08;0.88;;;;;;;;;;4937621;29;20038;-77
2022/04/15 02:59:29;;;;;;;1.40;1.30;;;;;;;;;;4935994;29;20027;-78
2022/04/15 03:01:54;;;;;;;0.40;0.40;;;;;;;;;;4938034;29;20114;-78
2022/04/15 03:04:19;;;;;;;1.00;0.90;;;;;;;;;;4929247;29;20036;-78
2022/04/15 03:06:47;;;;;;;2.90;1.60;;;;;;;;;;4936115;29;20369;-79
2022/04/15 03:09:13;;;;;;;0.32;0.28;;;;;;;;;;4936717;29;20082;-78
2022/04/15 03:11:39;;;;;;;0.95;0.95;;;;;;;;;;4936785;29;20032;-79
2022/04/15 03:14:05;;;;;;;2.88;0.82;;;;;;;;;;4933484;29;20035;-78
2022/04/15 03:16:30;;;;;;;0.32;0.32;;;;;;;;;;4933720;29;20115;-80
2022/04/15 03:18:56;;;;;;;0.43;0.43;;;;;;;;;;4936016;29;20115;-79
2022/04/15 03:21:21;;;;;;;0.82;0.82;;;;;;;;;;4936158;29;20028;-79
2022/04/15 03:23:46;;;;;;;0.52;0.40;;;;;;;;;;4936730;29;20444;-78
2022/04/15 03:26:12;;;;;;;1.33;0.75;;;;;;;;;;4935927;29;20035;-78
2022/04/15 03:28:37;;;;;;;0.35;0.35;;;;;;;;;;4935995;29;20081;-79
2022/04/15 03:31:05;;;;;;;1.55;1.45;;;;;;;;;;4933950;29;20122;-78
2022/04/15 03:33:33;;;;;;;1.00;0.80;;;;;;;;;;4937258;29;20115;-79
2022/04/15 03:35:58;;;;;;;0.52;0.52;;;;;;;;;;4936184;29;20457;-79
2022/04/15 03:38:24;;;;;;;0.40;0.40;;;;;;;;;;4919858;29;20031;-79
2022/04/15 03:40:49;;;;;;;0.55;0.55;;;;;;;;;;4929588;29;20027;-79
2022/04/15 03:43:14;;;;;;;1.50;1.40;;;;;;;;;;4936899;29;20492;-79
2022/04/15 03:45:40;;;;;;;1.25;0.80;;;;;;;;;;4931553;29;20100;-79
2022/04/15 03:48:05;;;;;;;1.00;0.93;;;;;;;;;;4936594;29;20027;-79
2022/04/15 03:50:31;;;;;;;3.03;2.22;;;;;;;;;;4928908;29;20032;-78
2022/04/15 03:52:56;;;;;;;3.22;1.35;;;;;;;;;;4930130;29;20015;-79
2022/04/15 03:55:24;;;;;;;0.08;0.08;;;;;;;;;;4934913;29;20115;-81
2022/04/15 03:57:50;;;;;;;0.70;0.68;;;;;;;;;;4935714;29;20027;-79
2022/04/15 04:00:20;;;;;;;0.50;0.50;;;;;;;;;;4925336;29;20123;-78
2022/04/15 04:02:47;;;;;;;0.95;0.77;;;;;;;;;;4931888;29;20091;-78
2022/04/15 04:05:15;;;;;;;13.13;1.23;;;;;;;;;;4927714;29;20035;-79
2022/04/15 04:07:41;;;;;;;0.93;0.88;;;;;;;;;;4934464;29;20028;-79
2022/04/15 04:10:07;;;;;;;0.75;0.75;;;;;;;;;;4935008;29;20634;-79
2022/04/15 04:12:33;;;;;;;0.40;0.40;;;;;;;;;;4934486;29;20208;-79
2022/04/15 04:15:02;;;;;;;0.35;0.35;;;;;;;;;;4931173;29;20036;-79
2022/04/15 04:17:28;;;;;;;1.35;1.25;;;;;;;;;;4937978;29;20027;-79
2022/04/15 04:19:58;;;;;;;2.00;1.85;;;;;;;;;;4939430;29;20098;-79
2022/04/15 04:22:31;;;;;;;0.93;0.93;;;;;;;;;;4940167;29;20036;-79
2022/04/15 04:24:59;;;;;;;0.10;0.10;;;;;;;;;;4937405;29;20028;-79
2022/04/15 04:27:27;;;;;;;1.65;0.88;;;;;;;;;;4923425;29;20035;-79
2022/04/15 04:29:52;;;;;;;1.42;1.15;;;;;;;;;;4934641;29;20062;-80
2022/04/15 04:32:18;;;;;;;1.70;0.73;;;;;;;;;;4937163;29;20586;-79
2022/04/15 04:34:46;;;;;;;0.43;0.43;;;;;;;;;;4936119;29;20027;-79
2022/04/15 04:37:11;;;;;;;0.65;0.65;;;;;;;;;;4939883;29;20094;-78
2022/04/15 04:39:36;;;;;;;0.30;0.30;;;;;;;;;;4939128;29;20023;-80
2022/04/15 04:42:05;;;;;;;1.40;1.30;;;;;;;;;;4939817;29;20559;-78
2022/04/15 04:44:31;;;;;;;0.30;0.30;;;;;;;;;;4938504;29;20035;-79
2022/04/15 04:46:57;;;;;;;0.35;0.35;;;;;;;;;;4920056;29;20054;-78
2022/04/15 04:49:25;;;;;;;1.35;0.85;;;;;;;;;;4934165;29;20448;-79
2022/04/15 04:51:53;;;;;;;0.57;0.55;;;;;;;;;;4939271;29;20118;-79
2022/04/15 04:54:19;;;;;;;2.67;1.00;;;;;;;;;;4940243;29;20608;-79
2022/04/15 04:56:44;;;;;;;0.60;0.60;;;;;;;;;;4936567;29;20099;-78
2022/04/15 04:59:12;;;;;;;1.27;0.70;;;;;;;;;;4937161;29;20352;-79
2022/04/15 05:01:39;;;;;;;0.38;0.38;;;;;;;;;;4929789;29;20031;-79
2022/04/15 05:04:04;;;;;;;1.60;1.25;;;;;;;;;;4938594;29;20036;-78
2022/04/15 05:06:30;;;;;;;3.10;2.03;;;;;;;;;;4927853;29;20040;-78
2022/04/15 05:08:55;;;;;;;2.10;1.38;;;;;;;;;;4938314;29;20034;-79
2022/04/15 05:11:23;;;;;;;1.88;0.98;;;;;;;;;;4938758;29;20042;-78
2022/04/15 05:13:50;;;;;;;3.95;1.85;;;;;;;;;;4939735;29;20051;-79
2022/04/15 05:16:17;;;;;;;0.52;0.52;;;;;;;;;;4938566;29;20032;-79
2022/04/15 05:18:43;;;;;;;1.67;1.05;;;;;;;;;;4939076;29;20509;-78
2022/04/15 05:21:11;;;;;;;1.90;0.90;;;;;;;;;;4937188;29;20114;-80
2022/04/15 05:23:36;;;;;;;2.28;1.30;;;;;;;;;;4932313;29;20035;-79
2022/04/15 05:26:01;;;;;;;1.02;1.00;;;;;;;;;;4937808;29;20043;-79
2022/04/15 05:28:27;;;;;;;0.43;0.43;;;;;;;;;;4938060;29;20020;-78
2022/04/15 05:30:54;;;;;;;1.38;1.27;;;;;;;;;;4937153;29;20043;-79
2022/04/15 05:33:20;;;;;;;3.08;1.20;;;;;;;;;;4937276;29;20421;-79
2022/04/15 05:35:47;;;;;;;1.60;1.45;;;;;;;;;;4927558;29;20043;-79
2022/04/15 05:38:13;;;;;;;3.65;1.42;;;;;;;;;;4928023;29;20032;-79
2022/04/15 05:40:38;;;;;;;1.38;1.33;;;;;;;;;;4937783;29;20050;-79
2022/04/15 05:43:06;;;;;;;1.30;1.23;;;;;;;;;;4937772;29;20361;-78
2022/04/15 05:45:31;;;;;;;2.90;2.28;;;;;;;;;;4932245;29;20152;-78
2022/04/15 05:47:59;;;;;;;5.63;1.55;;;;;;;;;;4933138;29;20051;-79
2022/04/15 05:50:25;;;;;;;2.95;1.17;;;;;;;;;;4932328;29;20035;-77
2022/04/15 05:52:52;;;;;;;1.42;1.33;;;;;;;;;;4932373;29;20094;-79
2022/04/15 05:55:18;;;;;;;0.20;0.20;;;;;;;;;;4931680;29;20051;-79
2022/04/15 05:57:43;;;;;;;2.25;0.80;;;;;;;;;;4931329;29;20031;-79
2022/04/15 06:00:09;;;;;;;1.40;1.30;;;;;;;;;;4927049;29;20031;-79
2022/04/15 06:02:34;;;;;;;1.80;1.70;;;;;;;;;;4929177;29;20040;-79
2022/04/15 06:05:02;;;;;;;4.95;2.00;;;;;;;;;;4936479;29;20520;-79
2022/04/15 06:07:27;;;;;;;1.80;1.67;;;;;;;;;;4936070;29;20031;-79
2022/04/15 06:09:53;;;;;;;0.35;0.35;;;;;;;;;;4926224;29;20032;-80
2022/04/15 06:12:21;;;;;;;0.98;0.77;;;;;;;;;;4931668;29;20055;-78
2022/04/15 06:14:50;;;;;;;0.57;0.57;;;;;;;;;;4923436;29;20092;-78
2022/04/15 06:17:22;;;;;;;0.35;0.35;;;;;;;;;;4938248;29;20123;-79
2022/04/15 06:19:48;;;;;;;0.73;0.63;;;;;;;;;;4932026;29;20023;-77
2022/04/15 06:22:15;;;;;;;1.45;0.82;;;;;;;;;;4947127;28;20043;-80
2022/04/15 06:24:41;;;;;;;0.75;0.52;;;;;;;;;;4932611;29;20031;-78
2022/04/15 06:27:06;;;;;;;0.80;0.60;;;;;;;;;;4932432;29;20035;-80
2022/04/15 06:29:31;;;;;;;1.08;0.98;;;;;;;;;;4937276;29;20412;-79
2022/04/15 06:31:57;;;;;;;2.25;1.15;;;;;;;;;;4926783;29;20428;-78
2022/04/15 06:34:22;;;;;;;1.35;1.25;;;;;;;;;;4936583;29;20023;-79
2022/04/15 06:36:47;;;;;;;1.65;1.17;;;;;;;;;;4931816;29;20027;-78
2022/04/15 06:39:13;;;;;;;0.63;0.63;;;;;;;;;;4928761;29;20028;-78
2022/04/15 06:41:40;;;;;;;0.88;0.88;;;;;;;;;;4937257;29;20121;-78
2022/04/15 06:44:06;;;;;;;2.65;1.15;;;;;;;;;;4934974;29;20032;-80
2022/04/15 06:46:31;;;;;;;2.58;1.67;;;;;;;;;;4932395;29;20099;-79
2022/04/15 06:48:56;;;;;;;1.70;1.48;;;;;;;;;;4917218;29;20047;-79
2022/04/15 06:51:22;;;;;;;0.77;0.77;;;;;;;;;;4932917;29;20056;-79
2022/04/15 06:53:50;;;;;;;0.73;0.73;;;;;;;;;;4931325;29;20038;-79
2022/04/15 06:56:15;;;;;;;3.15;2.50;;;;;;;;;;4935659;29;20098;-78
2022/04/15 06:58:41;;;;;;;0.98;0.75;;;;;;;;;;4935108;29;20539;-79
2022/04/15 07:01:06;;;;;;;0.38;0.38;;;;;;;;;;4926052;29;20028;-79
2022/04/15 07:03:34;;;;;;;0.60;0.60;;;;;;;;;;4936323;29;20038;-79
2022/04/15 07:06:02;;;;;;;0.38;0.38;;;;;;;;;;4936000;29;20027;-78
2022/04/15 07:08:30;;;;;;;0.10;0.10;;;;;;;;;;4937211;29;20312;-80
2022/04/15 07:10:56;;;;;;;1.13;0.57;;;;;;;;;;4937053;29;20051;-79
2022/04/15 07:13:21;;;;;;;1.23;1.00;;;;;;;;;;4937072;29;20118;-79
2022/04/15 07:15:46;;;;;;;0.82;0.38;;;;;;;;;;4933525;29;20027;-80
2022/04/15 07:18:16;;;;;;;0.52;0.52;;;;;;;;;;4915728;29;20028;-80
2022/04/15 07:20:46;;;;;;;0.57;0.43;;;;;;;;;;4930500;29;20031;-79
2022/04/15 07:23:11;;;;;;;1.17;1.10;;;;;;;;;;4930289;29;20038;-79
2022/04/15 07:25:37;;;;;;;0.57;0.57;;;;;;;;;;4932990;29;20027;-80
2022/04/15 07:28:02;;;;;;;1.75;0.30;;;;;;;;;;4925731;29;20111;-80
2022/04/15 07:30:29;;;;;;;0.00;0.00;;;;;;;;;;4934027;29;20091;-79
2022/04/15 07:32:54;;;;;;;0.38;0.35;;;;;;;;;;4926439;29;20337;-79
2022/04/15 07:35:22;;;;;;;0.08;0.08;;;;;;;;;;4934498;29;20169;-80
2022/04/15 07:37:47;;;;;;;1.33;0.60;;;;;;;;;;4917414;29;20129;-79
2022/04/15 07:40:17;;;;;;;0.32;0.32;;;;;;;;;;4923540;29;20036;-79
2022/04/15 07:42:43;;;;;;;0.22;0.22;;;;;;;;;;4920310;29;20027;-80
2022/04/15 07:45:09;;;;;;;1.65;0.57;;;;;;;;;;4936233;29;20362;-80
2022/04/15 07:47:39;;;;;;;0.50;0.32;;;;;;;;;;4937019;29;20039;-81
2022/04/15 07:50:05;;;;;;;0.30;0.30;;;;;;;;;;4932595;29;20024;-81
2022/04/15 07:52:32;;;;;;;0.17;0.17;;;;;;;;;;4926104;29;20031;-79
2022/04/15 07:54:57;;;;;;;0.20;0.20;;;;;;;;;;4928096;29;20047;-79
2022/04/15 07:57:27;;;;;;;0.17;0.17;;;;;;;;;;4931298;29;20024;-80
2022/04/15 08:00:05;;;;;;;0.10;0.10;;;;;;;;;;4931427;29;20446;-80
2022/04/15 08:02:30;;;;;;;0.38;0.38;;;;;;;;;;4927019;29;20073;-80
2022/04/15 08:04:55;;;;;;;0.20;0.20;;;;;;;;;;4928846;29;20056;-80
2022/04/15 08:07:24;;;;;;;0.30;0.30;;;;;;;;;;4929781;29;20035;-80
2022/04/15 08:09:53;;;;;;;1.65;0.50;;;;;;;;;;4925570;29;20458;-80
2022/04/15 08:12:18;;;;;;;0.20;0.20;;;;;;;;;;4930804;29;20071;-80
2022/04/15 08:14:44;;;;;;;0.25;0.25;;;;;;;;;;4920028;29;20043;-79
2022/04/15 08:17:09;;;;;;;0.20;0.20;;;;;;;;;;4933653;29;20043;-80
2022/04/15 08:19:35;;;;;;;0.50;0.22;;;;;;;;;;4936574;29;20529;-80
2022/04/15 08:22:01;;;;;;;0.60;0.35;;;;;;;;;;4932142;29;20024;-80
2022/04/15 08:24:27;;;;;;;0.55;0.55;;;;;;;;;;4932979;29;20024;-80
2022/04/15 08:26:56;;;;;;;0.85;0.82;;;;;;;;;;4931274;29;20087;-80
2022/04/15 08:29:22;;;;;;;1.75;1.55;;;;;;;;;;4926605;29;20433;-81
2022/04/15 08:31:47;;;;;;;0.00;0.00;;;;;;;;;;4928567;29;20042;-80
2022/04/15 08:34:15;;;;;;;1.75;1.10;;;;;;;;;;4932423;29;20028;-80
2022/04/15 08:36:40;;;;;;;0.57;0.35;;;;;;;;;;4929274;29;20028;-82
2022/04/15 08:39:06;;;;;;;0.20;0.20;;;;;;;;;;4927319;29;20043;-80
2022/04/15 08:41:35;;;;;;;0.98;0.68;;;;;;;;;;4928538;29;20059;-80
2022/04/15 08:44:03;;;;;;;0.20;0.20;;;;;;;;;;4929979;29;20083;-81
2022/04/15 08:46:29;;;;;;;5.18;1.05;;;;;;;;;;4934550;29;20127;-79
2022/04/15 08:49:02;;;;;;;0.15;0.15;;;;;;;;;;4932720;29;20509;-80
2022/04/15 08:51:31;;;;;;;;;;;;;;;;;;4924636;29;20123;-81
2022/04/15 08:53:59;;;;;;;0.30;0.30;;;;;;;;;;4918193;29;19915;-81
2022/04/15 08:56:24;;;;;;;0.80;0.80;;;;;;;;;;4932143;29;20035;-80
2022/04/15 08:58:49;;;;;;;0.50;0.40;;;;;;;;;;4935642;29;20038;-79
2022/04/15 09:01:17;;;;;;;0.20;0.20;;;;;;;;;;4916629;29;20027;-79
2022/04/15 09:03:42;;;;;;;2.08;0.85;;;;;;;;;;4938136;29;20131;-80
2022/04/15 09:06:17;;;;;;;0.40;0.32;;;;;;;;;;4938326;29;20131;-80
2022/04/15 09:09:02;;;;;;;1.73;1.20;;;;;;;;;;4938073;29;20031;-79
2022/04/15 09:11:35;;;;;;;0.40;0.40;;;;;;;;;;4936080;29;20039;-79
2022/04/15 09:14:25;;;;;;;0.50;0.50;;;;;;;;;;4918011;29;20047;-80
2022/04/15 09:19:48;;;;;;;0.25;0.25;;;;;;;;;;4919405;29;20036;-80
2022/04/15 09:22:20;;;;;;;0.40;0.40;;;;;;;;;;4934589;29;20059;-80
2022/04/15 09:24:51;;;;;;;0.40;0.40;;;;;;;;;;4928857;29;20033;-80
2022/04/15 09:27:19;;;;;;;1.05;1.05;;;;;;;;;;4939473;29;20063;-81
2022/04/15 09:29:45;;;;;;;0.77;0.73;;;;;;;;;;4938265;29;20027;-79
2022/04/15 09:32:17;;;;;;;0.30;0.30;;;;;;;;;;4934082;29;20038;-78
2022/04/15 09:34:52;;;;;;;;;;;;;;;;;;4938858;29;20038;-78
2022/04/15 09:37:19;;;;;;;0.63;0.63;;;;;;;;;;4938492;29;20449;-80
2022/04/15 09:40:14;;;;;;;0.20;0.20;;;;;;;;;;4937345;29;20389;-78
2022/04/15 09:42:56;;;;;;;1.73;0.95;;;;;;;;;;4932004;29;20066;-79
2022/04/15 09:45:51;;;;;;;1.52;1.42;;;;;;;;;;4934477;29;20040;-80
2022/04/15 09:48:20;;;;;;;5.78;1.30;;;;;;;;;;4935526;29;20464;-79
2022/04/15 09:50:45;;;;;;;2.95;0.95;;;;;;;;;;4946752;29;20036;-80
2022/04/15 09:53:20;;;;;;;0.70;0.70;;;;;;;;;;4932504;29;20100;-79
2022/04/15 09:55:50;;;;;;;0.80;0.77;;;;;;;;;;4920278;29;20036;-80
2022/04/15 09:58:17;;;;;;;0.60;0.60;;;;;;;;;;4919550;29;20035;-79
2022/04/15 10:00:48;;;;;;;1.13;1.05;;;;;;;;;;4935188;29;20043;-79
2022/04/15 10:03:24;;;;;;;0.90;0.47;;;;;;;;;;4935754;29;20449;-79
2022/04/15 10:05:54;;;;;;;0.57;0.35;;;;;;;;;;4920170;29;20042;-79
2022/04/15 10:08:22;;;;;;;1.00;0.73;;;;;;;;;;4920696;29;20061;-79
2022/04/15 10:10:48;;;;;;;0.88;0.88;;;;;;;;;;4939054;29;20039;-78
2022/04/15 10:13:14;;;;;;;1.00;0.52;;;;;;;;;;4936322;29;20051;-78
2022/04/15 10:15:40;;;;;;;0.95;0.40;;;;;;;;;;4937078;29;20028;-78
2022/04/15 10:18:06;;;;;;;0.63;0.63;;;;;;;;;;4918672;29;20144;-80
2022/04/15 10:20:32;;;;;;;0.45;0.45;;;;;;;;;;4927617;29;20027;-80
2022/04/15 10:23:03;;;;;;;0.45;0.45;;;;;;;;;;4908128;29;20028;-79
2022/04/15 10:25:29;;;;;;;1.50;0.75;;;;;;;;;;4918850;29;20232;-79
2022/04/15 10:28:04;;;;;;;0.68;0.68;;;;;;;;;;4935206;29;20027;-82
2022/04/15 10:30:32;;;;;;;3.90;1.30;;;;;;;;;;4937898;29;20046;-80
2022/04/15 10:32:57;;;;;;;0.38;0.38;;;;;;;;;;4936900;29;20027;-80
2022/04/15 10:35:31;;;;;;;1.50;0.63;;;;;;;;;;4927259;29;20043;-80
2022/04/15 10:37:57;;;;;;;0.55;0.55;;;;;;;;;;4931511;29;20028;-79
2022/04/15 10:40:34;;;;;;;1.13;1.08;;;;;;;;;;4934009;29;20043;-78
2022/04/15 10:43:37;;;;;;;0.85;0.85;;;;;;;;;;4925711;29;20370;-79
2022/04/15 10:46:15;;;;;;;0.57;0.38;;;;;;;;;;4918843;29;20386;-79
2022/04/15 10:52:01;;;;;;;1.15;0.75;;;;;;;;;;4936707;29;20114;-79
2022/04/15 10:54:39;;;;;;;1.00;0.57;;;;;;;;;;4924559;29;20421;-78
2022/04/15 10:57:43;;;;;;;0.75;0.73;;;;;;;;;;4929334;29;20461;-81
2022/04/15 11:03:29;;;;;;;2.65;0.88;;;;;;;;;;4934904;29;20492;-81
2022/04/15 11:05:59;;;;;;;1.00;0.93;;;;;;;;;;4925334;29;20039;-82
2022/04/15 11:08:28;;;;;;;0.93;0.63;;;;;;;;;;4912601;29;20015;-81
2022/04/15 11:10:55;;;;;;;3.25;1.17;;;;;;;;;;4922613;29;20039;-81
2022/04/15 11:13:27;;;;;;;1.85;1.13;;;;;;;;;;4932447;29;20027;-81
2022/04/15 11:16:10;;;;;;;0.67;0.67;;;;;;;;;;4931458;29;20473;-80
2022/04/15 11:18:53;;;;;;;1.90;0.70;;;;;;;;;;4923332;29;20477;-79
2022/04/15 11:21:21;;;;;;;1.60;0.93;;;;;;;;;;4933089;29;20125;-80
2022/04/15 11:23:49;;;;;;;0.35;0.35;;;;;;;;;;4934855;29;20465;-80
2022/04/15 11:26:15;;;;;;;1.02;0.93;;;;;;;;;;4924709;29;20239;-81
2022/04/15 11:28:43;;;;;;;1.23;1.15;;;;;;;;;;4927912;29;20550;-78
2022/04/15 11:31:22;;;;;;;0.75;0.75;;;;;;;;;;4933084;29;20464;-80
2022/04/15 11:33:51;;;;;;;1.42;1.23;;;;;;;;;;4933726;29;20361;-80
2022/04/15 11:36:20;;;;;;;2.13;1.45;;;;;;;;;;4934017;29;20042;-80
2022/04/15 11:38:47;;;;;;;0.85;0.75;;;;;;;;;;4928243;29;20465;-81
2022/04/15 11:41:32;;;;;;;3.65;2.33;;;;;;;;;;4935505;29;20449;-78
2022/04/15 11:43:59;;;;;;;1.45;0.60;;;;;;;;;;4930584;29;20326;-77
2022/04/15 11:46:39;;;;;;;1.02;0.90;;;;;;;;;;4909384;29;20530;-79
2022/04/15 11:49:14;;;;;;;2.95;1.77;;;;;;;;;;4922445;29;20019;-79
2022/04/15 11:51:43;;;;;;;1.52;1.38;;;;;;;;;;4919051;29;20063;-80
2022/04/15 11:54:14;;;;;;;1.13;1.08;;;;;;;;;;4927214;29;20115;-79
2022/04/15 11:56:40;;;;;;;4.53;1.52;;;;;;;;;;4928573;29;20071;-78
2022/04/15 11:59:08;;;;;;;2.97;1.33;;;;;;;;;;4936265;29;20074;-78
2022/04/15 12:02:08;;;;;;;1.42;0.63;;;;;;;;;;4936836;29;20026;-80
2022/04/15 12:04:51;;;;;;;3.83;1.38;;;;;;;;;;4917346;29;20040;-80
2022/04/15 12:07:35;;;;;;;1.40;1.27;;;;;;;;;;4933348;29;20106;-78
2022/04/15 12:10:35;;;;;;;0.70;0.55;;;;;;;;;;4917022;29;20109;-78
2022/04/15 12:13:10;;;;;;;1.00;0.75;;;;;;;;;;4928497;29;20103;-79
2022/04/15 12:15:37;;;;;;;0.38;0.38;;;;;;;;;;4924349;29;20491;-80
2022/04/15 12:18:11;;;;;;;0.95;0.95;;;;;;;;;;4933665;29;20054;-81
2022/04/15 12:20:42;;;;;;;2.13;1.35;;;;;;;;;;4906617;29;20028;-80
2022/04/15 12:23:16;;;;;;;0.57;0.57;;;;;;;;;;4918375;29;20075;-81
2022/04/15 12:26:13;;;;;;;0.35;0.35;;;;;;;;;;4922524;29;20032;-81
2022/04/15 12:31:33;;;;;;;0.70;0.45;;;;;;;;;;4929139;29;20051;-80
2022/04/15 12:33:59;;;;;;;1.05;1.05;;;;;;;;;;4925342;29;20032;-80
2022/04/15 12:36:27;;;;;;;0.57;0.43;;;;;;;;;;4918360;29;20028;-79
2022/04/15 12:39:00;;;;;;;2.03;1.52;;;;;;;;;;4911907;29;20117;-79
2022/04/15 12:41:45;;;;;;;0.93;0.60;;;;;;;;;;4930044;29;20066;-81
2022/04/15 12:44:34;;;;;;;0.40;0.40;;;;;;;;;;4932665;29;20373;-80
2022/04/15 12:47:02;;;;;;;1.33;0.82;;;;;;;;;;4935677;29;20114;-81
2022/04/15 12:52:36;;;;;;;0.50;0.50;;;;;;;;;;4922024;29;20113;-86
2022/04/15 12:55:04;;;;;;;0.47;0.47;;;;;;;;;;4923032;29;20400;-83
2022/04/15 12:57:40;;;;;;;0.10;0.10;;;;;;;;;;4939339;29;20044;-87
2022/04/15 13:00:08;;;;;;;0.90;0.88;;;;;;;;;;4922520;29;20038;-83
2022/04/15 13:02:37;;;;;;;1.08;0.52;;;;;;;;;;4932516;29;20063;-83
2022/04/15 13:05:09;;;;;;;0.80;0.80;;;;;;;;;;4917134;29;20386;-85
2022/04/15 13:07:38;;;;;;;1.30;0.90;;;;;;;;;;4945890;29;20024;-83
2022/04/15 13:12:51;;;;;;;2.83;0.50;;;;;;;;;;4920652;29;20058;-83
2022/04/15 13:15:19;;;;;;;0.55;0.55;;;;;;;;;;4933187;29;20035;-81
2022/04/15 13:17:45;;;;;;;3.00;0.70;;;;;;;;;;4932198;29;20051;-81
2022/04/15 13:20:11;;;;;;;0.45;0.45;;;;;;;;;;4937331;29;20125;-80
2022/04/15 13:22:39;;;;;;;0.22;0.22;;;;;;;;;;4933523;29;20604;-81
2022/04/15 13:26:01;;;;;;;0.93;0.40;;;;;;;;;;4934110;29;20035;-82
2022/04/15 13:28:26;;;;;;;0.52;0.52;;;;;;;;;;4933990;29;20461;-79
2022/04/15 13:30:55;;;;;;;0.20;0.20;;;;;;;;;;4934139;29;20032;-77
2022/04/15 13:33:20;;;;;;;0.43;0.40;;;;;;;;;;4925792;29;20042;-77
2022/04/15 13:35:45;;;;;;;1.15;0.40;;;;;;;;;;4930657;29;20024;-77
2022/04/15 13:38:28;;;;;;;0.28;0.28;;;;;;;;;;4932520;29;20032;-79
2022/04/15 13:40:55;;;;;;;0.47;0.47;;;;;;;;;;4934212;29;20050;-78
2022/04/15 13:43:22;;;;;;;1.02;0.93;;;;;;;;;;4938353;29;20457;-78
2022/04/15 13:45:48;;;;;;;0.75;0.75;;;;;;;;;;4925226;29;20028;-77
2022/04/15 13:48:15;;;;;;;1.75;1.15;;;;;;;;;;4928335;29;20074;-77
2022/04/15 13:50:41;;;;;;;1.05;0.63;;;;;;;;;;4939311;29;20403;-78
2022/04/15 13:58:34;;;;;;;0.60;0.57;;;;;;;;;;4926029;29;20039;-77
2022/04/15 14:01:00;;;;;;;1.38;0.88;;;;;;;;;;4923405;29;20036;-78
2022/04/15 14:03:26;;;;;;;1.08;0.98;;;;;;;;;;4927889;29;20585;-77
2022/04/15 14:05:51;;;;;;;1.30;0.85;;;;;;;;;;4931342;29;20040;-77
2022/04/15 14:08:17;;;;;;;0.93;0.80;;;;;;;;;;4934471;29;20573;-77
2022/04/15 14:10:43;;;;;;;1.05;1.02;;;;;;;;;;4936774;29;20098;-77
2022/04/15 14:13:09;;;;;;;0.75;0.43;;;;;;;;;;4937162;29;20122;-78
2022/04/15 14:15:40;;;;;;;0.80;0.80;;;;;;;;;;4926055;29;20071;-80
2022/04/15 14:18:08;;;;;;;2.58;1.63;;;;;;;;;;4922306;29;20032;-79
2022/04/15 14:20:34;;;;;;;1.83;1.10;;;;;;;;;;4925012;29;20035;-78
2022/04/15 14:22:59;;;;;;;0.90;0.90;;;;;;;;;;4934005;29;20410;-78
2022/04/15 14:25:25;;;;;;;0.60;0.60;;;;;;;;;;4938894;29;20059;-78
2022/04/15 14:27:50;;;;;;;0.57;0.57;;;;;;;;;;4938300;29;20035;-78
2022/04/15 14:30:18;;;;;;;0.20;0.20;;;;;;;;;;4936387;29;20046;-79
2022/04/15 14:32:43;;;;;;;3.50;0.82;;;;;;;;;;4937751;29;20031;-76
2022/04/15 14:35:11;;;;;;;0.60;0.60;;;;;;;;;;4937514;29;20612;-77
2022/04/15 14:37:39;;;;;;;0.30;0.30;;;;;;;;;;4939382;29;20110;-77
2022/04/15 14:40:10;;;;;;;0.45;0.45;;;;;;;;;;4927078;29;20029;-78
2022/04/15 14:42:36;;;;;;;1.55;0.73;;;;;;;;;;4935939;29;20050;-76
2022/04/15 14:45:01;;;;;;;1.10;0.90;;;;;;;;;;4925599;29;20461;-77
2022/04/15 14:47:27;;;;;;;0.52;0.47;;;;;;;;;;4938018;29;20412;-77
2022/04/15 14:49:52;;;;;;;0.28;0.20;;;;;;;;;;4933164;29;20020;-78
2022/04/15 14:52:18;;;;;;;2.42;1.40;;;;;;;;;;4930130;29;20032;-77
2022/04/15 14:54:45;;;;;;;0.45;0.40;;;;;;;;;;4930557;29;20036;-77
2022/04/15 14:57:11;;;;;;;1.98;1.30;;;;;;;;;;4937936;29;20111;-79
2022/04/15 14:59:39;;;;;;;0.50;0.50;;;;;;;;;;4937272;29;20371;-78
2022/04/15 15:02:08;;;;;;;0.40;0.38;;;;;;;;;;4924197;29;20446;-78
2022/04/15 15:04:35;;;;;;;2.20;1.17;;;;;;;;;;4926791;29;20031;-79
2022/04/15 15:07:01;;;;;;;0.80;0.55;;;;;;;;;;4930841;29;20103;-79
2022/04/15 15:09:26;;;;;;;0.50;0.50;;;;;;;;;;4929784;29;20132;-79
2022/04/15 15:11:57;;;;;;;1.05;1.00;;;;;;;;;;4921802;29;20418;-79
2022/04/15 15:14:25;;;;;;;1.65;0.95;;;;;;;;;;4936564;29;20031;-79